Terminal Aerodrome Forecast
Issued by NWS Tuscon, AZ

Home | Current Version | Previous Version | Text Only | Print | Product List | Glossary On
Versions: 1 2 3 4 5 6 7 8 9 10 11 12 13 14 15 16 17 18 19 20 21 22
000
FTUS45 KTWC 031736
TAFTUS
TAF
KTUS 031736Z 0318/0418 15007KT P6SM SCT080 SCT120
     FM032100 19010KT P6SM VCTS BKN070CB BKN110
      TEMPO 0322/0324 VRB15G30KT -TSRA BKN050CB OVC110
     FM040100 17009KT P6SM VCSH SCT070 BKN110
     FM040700 14007KT P6SM SCT090 BKN150=

USA.gov is the U.S. government's official web portal to all federal, state and local government web resources and services.